Airfield :
LOGIN :

Register | Disclaimer

   EN    FR    IT 

 










Legend :    VFR   Marginal VFR   IFR   Intensive IFR   Very Intensive IFR
Visi :
Ceiling :
>= 8 km
>= 3000ft
5 to 8 km
1000 to 3000 ft
1500m to 5 km
500 to 1000 ft
800 to 1500m
200 to 500 ft
< 800m
< 200 ft
Symbols :   Thunderstorms  Fog  Heavy snow  Heavy precipitations  Wind > 20 kt
SIGMETs :     Misc.  Thunderstorms  Icing  Turbulence  Mountain Waves  Volcanic Ashes







- Airport Elevation : 46 ft
- IATA code : SNN


EINN - Shannon

CURRENT METAR :
  • 192000Z 26004KT CAVOK 12/10 Q1030 NOSIG

EXPIRED METARs :
  • 191930Z 30003KT CAVOK 13/10 Q1030 NOSIG
  • 191900Z 29003KT CAVOK 14/11 Q1030 NOSIG
  • 191830Z 32005KT CAVOK 14/11 Q1029 NOSIG
  • 191800Z 32009KT 9999 FEW040 BKN200 15/11 Q1029 NOSIG
  • 191730Z 31009KT 9999 FEW040 BKN200 15/11 Q1029 NOSIG
  • 191700Z 25010KT 9999 FEW040 BKN200 16/12 Q1028 NOSIG

TAF TAF EINN
Valid from the 19 at 18:00 until the 20 at 18:00 UTC


191700Z 1918/2018 14008KT 9999 FEW030
PROB40
TEMPO 2000/2009 3000 BR BKN005
PROB30
TEMPO 2006/2009 0400 FG BKN002
No reported NOTAMs for that airfield.



MET'MAP, your aeronautical weather chart ! - Copyright ORBIFLY December 2007 - Disclaimer

ORBIFLY MET'MAP TEAM :

Programming & Development : Alexandra Zaïnal
Concept & Development : Baudouin d'Aumeries
Co-Development & Prog : Marc-Olivier Méhu
Technical & hardware support : Manuel Goepfert

Contact : metmap@orbifly.com




SOURCES & CREDITS :

   NOAA